Huelva, Spain
Current Conditions -  °F | °C
As of 10:00 AM on Sunday 23 Nov 2014 (Local Time) from LERT Reporting Station
Haze Haze  
Wind Chill: 66°   Ceiling: Unl
Heat Index: 66°   Visibility: 3mi
Dew Point: 61°   Wind: 7mph
Humidity: 83%   Direction: 150°SSE
Pressure: 29.8"   Gusts: NA
Location:  37.26°N, 6.95°W
Report Text: LERT 230900Z 15006KT 110V170 5000 BR FEW010 19/16 Q1009 TEMPO RA
Loading
Personal Weather Stations






























Interactive Weather Map New forecast layout! Learn more

10-Day Weather Forecast

Advertisements
Track Severe Weather on mobile